sensor_id;sensor_type;location;lat;lon;timestamp;temperature;humidity
12604;DHT22;6367;52.508;13.284;2024-03-22T00:01:56;12.00;99.90
12604;DHT22;6367;52.508;13.284;2024-03-22T00:04:22;12.00;99.90
12604;DHT22;6367;52.508;13.284;2024-03-22T00:06:49;12.00;99.90
12604;DHT22;6367;52.508;13.284;2024-03-22T00:09:15;12.70;99.90
12604;DHT22;6367;52.508;13.284;2024-03-22T00:11:42;12.00;99.90
12604;DHT22;6367;52.508;13.284;2024-03-22T00:14:08;12.00;99.90
12604;DHT22;6367;52.508;13.284;2024-03-22T00:16:35;12.20;99.90
12604;DHT22;6367;52.508;13.284;2024-03-22T00:19:01;11.90;99.90
12604;DHT22;6367;52.508;13.284;2024-03-22T00:21:27;12.70;99.90
12604;DHT22;6367;52.508;13.284;2024-03-22T00:23:53;12.20;99.90
12604;DHT22;6367;52.508;13.284;2024-03-22T00:26:19;12.10;99.90
12604;DHT22;6367;52.508;13.284;2024-03-22T00:28:45;12.20;99.90
12604;DHT22;6367;52.508;13.284;2024-03-22T00:31:10;12.10;99.90
12604;DHT22;6367;52.508;13.284;2024-03-22T00:33:36;12.10;99.90
12604;DHT22;6367;52.508;13.284;2024-03-22T00:36:02;12.00;99.90
12604;DHT22;6367;52.508;13.284;2024-03-22T00:38:28;12.00;99.90
12604;DHT22;6367;52.508;13.284;2024-03-22T00:40:54;12.30;99.90
12604;DHT22;6367;52.508;13.284;2024-03-22T00:43:20;12.10;99.90
12604;DHT22;6367;52.508;13.284;2024-03-22T00:45:46;11.90;99.90
12604;DHT22;6367;52.508;13.284;2024-03-22T00:48:12;11.90;99.90
12604;DHT22;6367;52.508;13.284;2024-03-22T00:50:38;11.90;99.90
12604;DHT22;6367;52.508;13.284;2024-03-22T00:53:03;11.90;99.90
12604;DHT22;6367;52.508;13.284;2024-03-22T00:55:31;12.20;99.90
12604;DHT22;6367;52.508;13.284;2024-03-22T00:57:56;11.80;99.90
12604;DHT22;6367;52.508;13.284;2024-03-22T01:00:22;11.80;99.90
12604;DHT22;6367;52.508;13.284;2024-03-22T01:02:49;11.70;99.90
12604;DHT22;6367;52.508;13.284;2024-03-22T01:05:16;11.70;99.90
12604;DHT22;6367;52.508;13.284;2024-03-22T01:07:41;11.80;99.90
12604;DHT22;6367;52.508;13.284;2024-03-22T01:10:07;11.90;99.90
12604;DHT22;6367;52.508;13.284;2024-03-22T01:12:33;11.80;99.90
12604;DHT22;6367;52.508;13.284;2024-03-22T01:14:59;11.80;99.90
12604;DHT22;6367;52.508;13.284;2024-03-22T01:17:24;11.80;99.90
12604;DHT22;6367;52.508;13.284;2024-03-22T01:19:51;11.80;99.90
12604;DHT22;6367;52.508;13.284;2024-03-22T01:22:17;11.80;99.90
12604;DHT22;6367;52.508;13.284;2024-03-22T01:24:44;11.70;99.90
12604;DHT22;6367;52.508;13.284;2024-03-22T01:27:09;11.70;99.90
12604;DHT22;6367;52.508;13.284;2024-03-22T01:29:35;11.70;99.90
12604;DHT22;6367;52.508;13.284;2024-03-22T01:32:01;11.60;99.90
12604;DHT22;6367;52.508;13.284;2024-03-22T01:34:27;11.70;99.90
12604;DHT22;6367;52.508;13.284;2024-03-22T01:36:53;11.70;99.90
12604;DHT22;6367;52.508;13.284;2024-03-22T01:39:19;11.70;99.90
12604;DHT22;6367;52.508;13.284;2024-03-22T01:41:47;11.60;99.90
12604;DHT22;6367;52.508;13.284;2024-03-22T01:44:13;11.60;99.90
12604;DHT22;6367;52.508;13.284;2024-03-22T01:46:40;11.60;99.90
12604;DHT22;6367;52.508;13.284;2024-03-22T01:49:06;11.70;99.90
12604;DHT22;6367;52.508;13.284;2024-03-22T01:51:31;11.60;99.90
12604;DHT22;6367;52.508;13.284;2024-03-22T01:54:00;11.60;99.90
12604;DHT22;6367;52.508;13.284;2024-03-22T01:56:27;11.50;99.90
12604;DHT22;6367;52.508;13.284;2024-03-22T01:58:53;11.60;99.90
12604;DHT22;6367;52.508;13.284;2024-03-22T02:01:20;11.70;99.90
12604;DHT22;6367;52.508;13.284;2024-03-22T02:03:45;11.60;99.90
12604;DHT22;6367;52.508;13.284;2024-03-22T02:06:11;11.70;99.90
12604;DHT22;6367;52.508;13.284;2024-03-22T02:08:37;11.60;99.90
12604;DHT22;6367;52.508;13.284;2024-03-22T02:11:03;11.70;99.90
12604;DHT22;6367;52.508;13.284;2024-03-22T02:13:29;11.60;99.90
12604;DHT22;6367;52.508;13.284;2024-03-22T02:15:55;11.60;99.90
12604;DHT22;6367;52.508;13.284;2024-03-22T02:18:21;11.60;99.90
12604;DHT22;6367;52.508;13.284;2024-03-22T02:20:46;11.70;99.90
12604;DHT22;6367;52.508;13.284;2024-03-22T02:23:12;11.60;99.90
12604;DHT22;6367;52.508;13.284;2024-03-22T02:25:37;11.60;99.90
12604;DHT22;6367;52.508;13.284;2024-03-22T02:28:03;11.60;99.90
12604;DHT22;6367;52.508;13.284;2024-03-22T02:30:29;11.60;99.90
12604;DHT22;6367;52.508;13.284;2024-03-22T02:32:55;11.60;99.90
12604;DHT22;6367;52.508;13.284;2024-03-22T02:35:20;11.60;99.90
12604;DHT22;6367;52.508;13.284;2024-03-22T02:37:46;11.70;99.90
12604;DHT22;6367;52.508;13.284;2024-03-22T02:40:12;11.50;99.90
12604;DHT22;6367;52.508;13.284;2024-03-22T02:42:37;11.50;99.90
12604;DHT22;6367;52.508;13.284;2024-03-22T02:45:03;11.50;99.90
12604;DHT22;6367;52.508;13.284;2024-03-22T02:47:29;11.60;99.90
12604;DHT22;6367;52.508;13.284;2024-03-22T02:49:55;11.60;99.90
12604;DHT22;6367;52.508;13.284;2024-03-22T02:52:20;11.50;99.90
12604;DHT22;6367;52.508;13.284;2024-03-22T02:54:46;11.50;99.90
12604;DHT22;6367;52.508;13.284;2024-03-22T02:57:11;11.50;99.90
12604;DHT22;6367;52.508;13.284;2024-03-22T02:59:37;11.40;99.90
12604;DHT22;6367;52.508;13.284;2024-03-22T03:02:03;11.30;99.90
12604;DHT22;6367;52.508;13.284;2024-03-22T03:04:29;11.50;99.90
12604;DHT22;6367;52.508;13.284;2024-03-22T03:06:54;11.50;99.90
12604;DHT22;6367;52.508;13.284;2024-03-22T03:09:21;11.50;99.90
12604;DHT22;6367;52.508;13.284;2024-03-22T03:11:46;11.50;99.90
12604;DHT22;6367;52.508;13.284;2024-03-22T03:14:12;11.50;99.90
12604;DHT22;6367;52.508;13.284;2024-03-22T03:16:38;11.40;99.90
12604;DHT22;6367;52.508;13.284;2024-03-22T03:19:03;11.40;99.90
12604;DHT22;6367;52.508;13.284;2024-03-22T03:21:29;11.40;99.90
12604;DHT22;6367;52.508;13.284;2024-03-22T03:23:54;11.40;99.90
12604;DHT22;6367;52.508;13.284;2024-03-22T03:26:20;11.40;99.90
12604;DHT22;6367;52.508;13.284;2024-03-22T03:28:46;11.50;99.90
12604;DHT22;6367;52.508;13.284;2024-03-22T03:31:11;11.50;99.90
12604;DHT22;6367;52.508;13.284;2024-03-22T03:33:37;11.50;99.90
12604;DHT22;6367;52.508;13.284;2024-03-22T03:36:03;11.50;99.90
12604;DHT22;6367;52.508;13.284;2024-03-22T03:38:29;10.80;99.90
12604;DHT22;6367;52.508;13.284;2024-03-22T03:40:54;11.50;99.90
12604;DHT22;6367;52.508;13.284;2024-03-22T03:43:21;11.40;99.90
12604;DHT22;6367;52.508;13.284;2024-03-22T03:45:47;11.40;99.90
12604;DHT22;6367;52.508;13.284;2024-03-22T03:48:13;11.40;99.90
12604;DHT22;6367;52.508;13.284;2024-03-22T03:50:38;11.40;99.90
12604;DHT22;6367;52.508;13.284;2024-03-22T03:53:04;11.50;99.90
12604;DHT22;6367;52.508;13.284;2024-03-22T03:55:30;11.50;99.90
12604;DHT22;6367;52.508;13.284;2024-03-22T03:57:55;11.50;99.90
12604;DHT22;6367;52.508;13.284;2024-03-22T04:00:21;11.50;99.90
12604;DHT22;6367;52.508;13.284;2024-03-22T04:02:49;11.50;99.90
12604;DHT22;6367;52.508;13.284;2024-03-22T04:05:16;11.50;99.90
12604;DHT22;6367;52.508;13.284;2024-03-22T04:07:41;11.50;99.90
12604;DHT22;6367;52.508;13.284;2024-03-22T04:10:08;11.60;99.90
12604;DHT22;6367;52.508;13.284;2024-03-22T04:12:34;11.60;99.90
12604;DHT22;6367;52.508;13.284;2024-03-22T04:15:00;11.60;99.90
12604;DHT22;6367;52.508;13.284;2024-03-22T04:17:25;11.60;99.90
12604;DHT22;6367;52.508;13.284;2024-03-22T04:19:51;11.60;99.90
12604;DHT22;6367;52.508;13.284;2024-03-22T04:22:17;11.50;99.90
12604;DHT22;6367;52.508;13.284;2024-03-22T04:24:43;11.60;99.90
12604;DHT22;6367;52.508;13.284;2024-03-22T04:27:09;11.60;99.90
12604;DHT22;6367;52.508;13.284;2024-03-22T04:29:34;11.60;99.90
12604;DHT22;6367;52.508;13.284;2024-03-22T04:32:00;11.60;99.90
12604;DHT22;6367;52.508;13.284;2024-03-22T04:34:26;11.60;99.90
12604;DHT22;6367;52.508;13.284;2024-03-22T04:36:52;11.60;99.90
12604;DHT22;6367;52.508;13.284;2024-03-22T04:39:19;11.60;99.90
12604;DHT22;6367;52.508;13.284;2024-03-22T04:41:45;11.60;99.90
12604;DHT22;6367;52.508;13.284;2024-03-22T04:44:11;11.70;99.90
12604;DHT22;6367;52.508;13.284;2024-03-22T04:46:36;11.60;99.90
12604;DHT22;6367;52.508;13.284;2024-03-22T04:49:02;11.60;99.90
12604;DHT22;6367;52.508;13.284;2024-03-22T04:51:27;11.60;99.90
12604;DHT22;6367;52.508;13.284;2024-03-22T04:53:53;11.50;99.90
12604;DHT22;6367;52.508;13.284;2024-03-22T04:56:19;11.50;99.90
12604;DHT22;6367;52.508;13.284;2024-03-22T04:58:44;11.50;99.90
12604;DHT22;6367;52.508;13.284;2024-03-22T05:01:10;11.50;99.90
12604;DHT22;6367;52.508;13.284;2024-03-22T05:03:38;11.60;99.90
12604;DHT22;6367;52.508;13.284;2024-03-22T05:06:04;11.60;99.90
12604;DHT22;6367;52.508;13.284;2024-03-22T05:08:32;11.60;99.90
12604;DHT22;6367;52.508;13.284;2024-03-22T05:10:57;11.60;99.90
12604;DHT22;6367;52.508;13.284;2024-03-22T05:13:23;11.60;99.90
12604;DHT22;6367;52.508;13.284;2024-03-22T05:15:49;11.60;99.90
12604;DHT22;6367;52.508;13.284;2024-03-22T05:18:14;11.60;99.90
12604;DHT22;6367;52.508;13.284;2024-03-22T05:20:40;11.80;99.90
12604;DHT22;6367;52.508;13.284;2024-03-22T05:23:05;11.70;99.90
12604;DHT22;6367;52.508;13.284;2024-03-22T05:25:31;11.70;99.90
12604;DHT22;6367;52.508;13.284;2024-03-22T05:27:57;11.70;99.90
12604;DHT22;6367;52.508;13.284;2024-03-22T05:30:22;11.80;99.90
12604;DHT22;6367;52.508;13.284;2024-03-22T05:32:48;11.70;99.90
12604;DHT22;6367;52.508;13.284;2024-03-22T05:35:15;12.10;99.90
12604;DHT22;6367;52.508;13.284;2024-03-22T05:37:41;11.70;99.90
12604;DHT22;6367;52.508;13.284;2024-03-22T05:40:07;11.70;99.90
12604;DHT22;6367;52.508;13.284;2024-03-22T05:42:34;11.70;99.90
12604;DHT22;6367;52.508;13.284;2024-03-22T05:44:59;11.80;99.90
12604;DHT22;6367;52.508;13.284;2024-03-22T05:47:25;11.70;99.90
12604;DHT22;6367;52.508;13.284;2024-03-22T05:49:51;11.70;99.90
12604;DHT22;6367;52.508;13.284;2024-03-22T05:52:18;11.60;99.90
12604;DHT22;6367;52.508;13.284;2024-03-22T05:54:43;11.70;99.90
12604;DHT22;6367;52.508;13.284;2024-03-22T05:57:09;11.80;99.90
12604;DHT22;6367;52.508;13.284;2024-03-22T05:59:36;11.80;99.90
12604;DHT22;6367;52.508;13.284;2024-03-22T06:02:02;11.80;99.90
12604;DHT22;6367;52.508;13.284;2024-03-22T06:04:28;11.80;99.90
12604;DHT22;6367;52.508;13.284;2024-03-22T06:06:53;11.90;99.90
12604;DHT22;6367;52.508;13.284;2024-03-22T06:09:19;11.90;99.90
12604;DHT22;6367;52.508;13.284;2024-03-22T06:12:00;12.00;99.90
12604;DHT22;6367;52.508;13.284;2024-03-22T06:14:28;12.00;99.90
12604;DHT22;6367;52.508;13.284;2024-03-22T06:16:54;12.00;99.90
12604;DHT22;6367;52.508;13.284;2024-03-22T06:19:19;12.00;99.90
12604;DHT22;6367;52.508;13.284;2024-03-22T06:21:45;12.10;99.90
12604;DHT22;6367;52.508;13.284;2024-03-22T06:24:10;12.10;99.90
12604;DHT22;6367;52.508;13.284;2024-03-22T06:26:36;12.10;99.90
12604;DHT22;6367;52.508;13.284;2024-03-22T06:29:02;12.10;99.90
12604;DHT22;6367;52.508;13.284;2024-03-22T06:31:28;12.10;99.90
12604;DHT22;6367;52.508;13.284;2024-03-22T06:33:54;12.10;99.90
12604;DHT22;6367;52.508;13.284;2024-03-22T06:36:21;12.00;99.90
12604;DHT22;6367;52.508;13.284;2024-03-22T06:38:47;12.00;99.90
12604;DHT22;6367;52.508;13.284;2024-03-22T06:41:13;12.10;99.90
12604;DHT22;6367;52.508;13.284;2024-03-22T06:43:39;11.80;99.90
12604;DHT22;6367;52.508;13.284;2024-03-22T06:46:05;12.20;99.90
12604;DHT22;6367;52.508;13.284;2024-03-22T06:48:30;12.10;99.90
12604;DHT22;6367;52.508;13.284;2024-03-22T06:50:56;12.10;99.90
12604;DHT22;6367;52.508;13.284;2024-03-22T06:53:22;12.10;99.90
12604;DHT22;6367;52.508;13.284;2024-03-22T06:55:47;12.20;99.90
12604;DHT22;6367;52.508;13.284;2024-03-22T06:58:13;12.20;99.90
12604;DHT22;6367;52.508;13.284;2024-03-22T07:00:39;12.20;99.90
12604;DHT22;6367;52.508;13.284;2024-03-22T07:03:05;12.20;99.90
12604;DHT22;6367;52.508;13.284;2024-03-22T07:05:30;12.20;99.90
12604;DHT22;6367;52.508;13.284;2024-03-22T07:07:56;12.30;99.90
12604;DHT22;6367;52.508;13.284;2024-03-22T07:10:23;12.40;99.90
12604;DHT22;6367;52.508;13.284;2024-03-22T07:12:54;12.40;99.90
12604;DHT22;6367;52.508;13.284;2024-03-22T07:15:20;12.40;99.90
12604;DHT22;6367;52.508;13.284;2024-03-22T07:17:45;12.40;99.90
12604;DHT22;6367;52.508;13.284;2024-03-22T07:20:11;12.50;99.90
12604;DHT22;6367;52.508;13.284;2024-03-22T07:22:37;12.50;99.90
12604;DHT22;6367;52.508;13.284;2024-03-22T07:25:02;12.60;99.90
12604;DHT22;6367;52.508;13.284;2024-03-22T07:27:28;12.60;99.90
12604;DHT22;6367;52.508;13.284;2024-03-22T07:29:56;12.60;99.90
12604;DHT22;6367;52.508;13.284;2024-03-22T07:32:22;12.70;99.90
12604;DHT22;6367;52.508;13.284;2024-03-22T07:34:48;12.70;99.90
12604;DHT22;6367;52.508;13.284;2024-03-22T07:37:13;12.70;99.90
12604;DHT22;6367;52.508;13.284;2024-03-22T07:39:39;12.70;99.90
12604;DHT22;6367;52.508;13.284;2024-03-22T07:42:05;12.70;99.90
12604;DHT22;6367;52.508;13.284;2024-03-22T07:44:31;12.80;99.90
12604;DHT22;6367;52.508;13.284;2024-03-22T07:46:56;12.70;99.90
12604;DHT22;6367;52.508;13.284;2024-03-22T07:49:22;12.80;99.90
12604;DHT22;6367;52.508;13.284;2024-03-22T07:51:48;12.80;99.90
12604;DHT22;6367;52.508;13.284;2024-03-22T07:54:13;13.00;99.90
12604;DHT22;6367;52.508;13.284;2024-03-22T07:56:39;13.10;99.90
12604;DHT22;6367;52.508;13.284;2024-03-22T07:59:04;13.00;99.90
12604;DHT22;6367;52.508;13.284;2024-03-22T08:01:30;13.00;99.90
12604;DHT22;6367;52.508;13.284;2024-03-22T08:03:56;13.10;99.90
12604;DHT22;6367;52.508;13.284;2024-03-22T08:06:21;13.20;99.90
12604;DHT22;6367;52.508;13.284;2024-03-22T08:08:47;13.20;99.90
12604;DHT22;6367;52.508;13.284;2024-03-22T08:11:13;13.30;99.90
12604;DHT22;6367;52.508;13.284;2024-03-22T08:13:38;13.40;99.90
12604;DHT22;6367;52.508;13.284;2024-03-22T08:16:05;13.40;99.90
12604;DHT22;6367;52.508;13.284;2024-03-22T08:18:31;13.30;99.90
12604;DHT22;6367;52.508;13.284;2024-03-22T08:20:58;13.40;99.90
12604;DHT22;6367;52.508;13.284;2024-03-22T08:23:24;13.50;99.90
12604;DHT22;6367;52.508;13.284;2024-03-22T08:25:50;13.50;99.90
12604;DHT22;6367;52.508;13.284;2024-03-22T08:28:15;13.60;99.90
12604;DHT22;6367;52.508;13.284;2024-03-22T08:30:42;13.60;99.90
12604;DHT22;6367;52.508;13.284;2024-03-22T08:33:09;13.60;99.90
12604;DHT22;6367;52.508;13.284;2024-03-22T08:35:35;13.60;99.90
12604;DHT22;6367;52.508;13.284;2024-03-22T08:38:00;13.60;99.90
12604;DHT22;6367;52.508;13.284;2024-03-22T08:40:26;13.70;99.90
12604;DHT22;6367;52.508;13.284;2024-03-22T08:42:52;13.70;99.90
12604;DHT22;6367;52.508;13.284;2024-03-22T08:45:18;13.80;99.90
12604;DHT22;6367;52.508;13.284;2024-03-22T08:47:44;13.90;99.90
12604;DHT22;6367;52.508;13.284;2024-03-22T08:50:11;13.90;99.90
12604;DHT22;6367;52.508;13.284;2024-03-22T08:52:37;13.90;99.90
12604;DHT22;6367;52.508;13.284;2024-03-22T08:55:04;13.90;99.90
12604;DHT22;6367;52.508;13.284;2024-03-22T08:57:31;13.90;99.90
12604;DHT22;6367;52.508;13.284;2024-03-22T08:59:57;13.90;99.90
12604;DHT22;6367;52.508;13.284;2024-03-22T09:02:23;13.90;99.90
12604;DHT22;6367;52.508;13.284;2024-03-22T09:04:48;13.90;99.90
12604;DHT22;6367;52.508;13.284;2024-03-22T09:07:15;13.90;99.90
12604;DHT22;6367;52.508;13.284;2024-03-22T09:09:40;14.10;99.90
12604;DHT22;6367;52.508;13.284;2024-03-22T09:12:06;14.10;99.90
12604;DHT22;6367;52.508;13.284;2024-03-22T09:14:33;14.30;99.90
12604;DHT22;6367;52.508;13.284;2024-03-22T09:16:58;14.30;99.90
12604;DHT22;6367;52.508;13.284;2024-03-22T09:19:24;14.40;99.90
12604;DHT22;6367;52.508;13.284;2024-03-22T09:21:50;14.30;99.90
12604;DHT22;6367;52.508;13.284;2024-03-22T09:24:15;14.60;99.90
12604;DHT22;6367;52.508;13.284;2024-03-22T09:26:41;14.60;99.90
12604;DHT22;6367;52.508;13.284;2024-03-22T09:29:06;14.60;99.90
12604;DHT22;6367;52.508;13.284;2024-03-22T09:31:32;14.70;99.90
12604;DHT22;6367;52.508;13.284;2024-03-22T09:33:58;14.70;99.90
12604;DHT22;6367;52.508;13.284;2024-03-22T09:36:24;14.60;99.90
12604;DHT22;6367;52.508;13.284;2024-03-22T09:38:50;14.60;99.90
12604;DHT22;6367;52.508;13.284;2024-03-22T09:41:23;13.70;99.90
12604;DHT22;6367;52.508;13.284;2024-03-22T09:43:51;14.70;99.90
12604;DHT22;6367;52.508;13.284;2024-03-22T09:46:19;14.80;99.90
12604;DHT22;6367;52.508;13.284;2024-03-22T09:48:47;14.30;99.90
12604;DHT22;6367;52.508;13.284;2024-03-22T09:51:15;14.90;99.90
12604;DHT22;6367;52.508;13.284;2024-03-22T09:53:44;14.90;99.90
12604;DHT22;6367;52.508;13.284;2024-03-22T09:56:14;14.90;99.90
12604;DHT22;6367;52.508;13.284;2024-03-22T09:58:41;15.00;99.90
12604;DHT22;6367;52.508;13.284;2024-03-22T10:01:07;15.10;99.90
12604;DHT22;6367;52.508;13.284;2024-03-22T10:03:33;15.20;99.90
12604;DHT22;6367;52.508;13.284;2024-03-22T10:05:59;15.30;99.90
12604;DHT22;6367;52.508;13.284;2024-03-22T10:08:25;15.30;99.90
12604;DHT22;6367;52.508;13.284;2024-03-22T10:10:50;15.30;99.90
12604;DHT22;6367;52.508;13.284;2024-03-22T10:13:16;15.30;99.90
12604;DHT22;6367;52.508;13.284;2024-03-22T10:15:42;15.40;99.90
12604;DHT22;6367;52.508;13.284;2024-03-22T10:18:10;15.40;99.90
12604;DHT22;6367;52.508;13.284;2024-03-22T10:20:35;15.40;99.90
12604;DHT22;6367;52.508;13.284;2024-03-22T10:23:01;15.60;99.90
12604;DHT22;6367;52.508;13.284;2024-03-22T10:25:27;15.50;99.90
12604;DHT22;6367;52.508;13.284;2024-03-22T10:27:56;15.60;99.90
12604;DHT22;6367;52.508;13.284;2024-03-22T10:30:24;15.70;99.90
12604;DHT22;6367;52.508;13.284;2024-03-22T10:32:50;15.70;99.90
12604;DHT22;6367;52.508;13.284;2024-03-22T10:35:16;15.80;99.90
12604;DHT22;6367;52.508;13.284;2024-03-22T10:37:42;15.70;99.90
12604;DHT22;6367;52.508;13.284;2024-03-22T10:40:08;15.80;99.90
12604;DHT22;6367;52.508;13.284;2024-03-22T10:42:36;16.00;99.90
12604;DHT22;6367;52.508;13.284;2024-03-22T10:45:03;16.10;99.90
12604;DHT22;6367;52.508;13.284;2024-03-22T10:47:31;16.30;99.90
12604;DHT22;6367;52.508;13.284;2024-03-22T10:50:07;16.40;99.90
12604;DHT22;6367;52.508;13.284;2024-03-22T10:52:52;16.60;99.90
12604;DHT22;6367;52.508;13.284;2024-03-22T10:55:30;16.70;99.90
12604;DHT22;6367;52.508;13.284;2024-03-22T10:57:58;17.00;99.90
12604;DHT22;6367;52.508;13.284;2024-03-22T11:00:34;17.10;99.90
12604;DHT22;6367;52.508;13.284;2024-03-22T11:03:03;17.10;99.90
12604;DHT22;6367;52.508;13.284;2024-03-22T11:05:30;17.10;99.90
12604;DHT22;6367;52.508;13.284;2024-03-22T11:08:03;17.10;99.90
12604;DHT22;6367;52.508;13.284;2024-03-22T11:10:33;17.00;99.90
12604;DHT22;6367;52.508;13.284;2024-03-22T11:13:03;17.00;99.90
12604;DHT22;6367;52.508;13.284;2024-03-22T11:15:29;16.90;99.90
12604;DHT22;6367;52.508;13.284;2024-03-22T11:17:56;16.80;99.90
12604;DHT22;6367;52.508;13.284;2024-03-22T11:20:22;16.80;99.90
12604;DHT22;6367;52.508;13.284;2024-03-22T11:22:47;16.70;99.90
12604;DHT22;6367;52.508;13.284;2024-03-22T11:25:13;16.70;99.90
12604;DHT22;6367;52.508;13.284;2024-03-22T11:27:39;16.70;99.90
12604;DHT22;6367;52.508;13.284;2024-03-22T11:30:05;16.70;99.90
12604;DHT22;6367;52.508;13.284;2024-03-22T11:32:31;16.70;99.90
12604;DHT22;6367;52.508;13.284;2024-03-22T11:35:00;16.70;99.90
12604;DHT22;6367;52.508;13.284;2024-03-22T11:37:25;16.60;99.90
12604;DHT22;6367;52.508;13.284;2024-03-22T11:39:51;16.60;99.90
12604;DHT22;6367;52.508;13.284;2024-03-22T11:42:17;16.50;99.90
12604;DHT22;6367;52.508;13.284;2024-03-22T11:44:43;16.50;99.90
12604;DHT22;6367;52.508;13.284;2024-03-22T11:47:09;16.30;99.90
12604;DHT22;6367;52.508;13.284;2024-03-22T11:49:35;16.40;99.90
12604;DHT22;6367;52.508;13.284;2024-03-22T11:52:01;16.30;99.90
12604;DHT22;6367;52.508;13.284;2024-03-22T11:54:26;16.40;99.90
12604;DHT22;6367;52.508;13.284;2024-03-22T11:56:55;16.30;99.90
12604;DHT22;6367;52.508;13.284;2024-03-22T11:59:22;16.30;99.90
12604;DHT22;6367;52.508;13.284;2024-03-22T12:01:47;16.30;99.90
12604;DHT22;6367;52.508;13.284;2024-03-22T12:04:13;16.30;99.90
12604;DHT22;6367;52.508;13.284;2024-03-22T12:06:43;16.20;99.90
12604;DHT22;6367;52.508;13.284;2024-03-22T12:09:09;16.20;99.90
12604;DHT22;6367;52.508;13.284;2024-03-22T12:11:37;16.10;99.90
12604;DHT22;6367;52.508;13.284;2024-03-22T12:14:03;16.20;99.90
12604;DHT22;6367;52.508;13.284;2024-03-22T12:16:29;16.20;99.90
12604;DHT22;6367;52.508;13.284;2024-03-22T12:18:54;16.20;99.90
12604;DHT22;6367;52.508;13.284;2024-03-22T12:21:20;16.10;99.90
12604;DHT22;6367;52.508;13.284;2024-03-22T12:23:45;16.10;99.90
12604;DHT22;6367;52.508;13.284;2024-03-22T12:26:11;16.10;99.90
12604;DHT22;6367;52.508;13.284;2024-03-22T12:28:37;16.00;99.90
12604;DHT22;6367;52.508;13.284;2024-03-22T12:31:04;16.00;99.90
12604;DHT22;6367;52.508;13.284;2024-03-22T12:33:30;15.90;99.90
12604;DHT22;6367;52.508;13.284;2024-03-22T12:35:56;15.90;99.90
12604;DHT22;6367;52.508;13.284;2024-03-22T12:38:22;15.90;99.90
12604;DHT22;6367;52.508;13.284;2024-03-22T12:40:48;15.90;99.90
12604;DHT22;6367;52.508;13.284;2024-03-22T12:43:17;15.90;99.90
12604;DHT22;6367;52.508;13.284;2024-03-22T12:45:42;15.80;99.90
12604;DHT22;6367;52.508;13.284;2024-03-22T12:48:08;15.80;99.90
12604;DHT22;6367;52.508;13.284;2024-03-22T12:50:35;14.90;99.90
12604;DHT22;6367;52.508;13.284;2024-03-22T12:53:03;15.90;99.90
12604;DHT22;6367;52.508;13.284;2024-03-22T12:55:30;15.80;99.90
12604;DHT22;6367;52.508;13.284;2024-03-22T12:57:57;15.80;99.90
12604;DHT22;6367;52.508;13.284;2024-03-22T13:00:23;15.80;99.90
12604;DHT22;6367;52.508;13.284;2024-03-22T13:02:48;15.70;99.90
12604;DHT22;6367;52.508;13.284;2024-03-22T13:05:14;15.80;99.90
12604;DHT22;6367;52.508;13.284;2024-03-22T13:07:41;15.70;99.90
12604;DHT22;6367;52.508;13.284;2024-03-22T13:10:07;15.70;99.90
12604;DHT22;6367;52.508;13.284;2024-03-22T13:12:42;15.60;99.90
12604;DHT22;6367;52.508;13.284;2024-03-22T13:15:11;15.50;99.90
12604;DHT22;6367;52.508;13.284;2024-03-22T13:17:36;15.40;99.90
12604;DHT22;6367;52.508;13.284;2024-03-22T13:20:02;15.40;99.90
12604;DHT22;6367;52.508;13.284;2024-03-22T13:22:36;15.40;99.90
12604;DHT22;6367;52.508;13.284;2024-03-22T13:25:01;15.20;99.90
12604;DHT22;6367;52.508;13.284;2024-03-22T13:27:31;15.30;99.90
12604;DHT22;6367;52.508;13.284;2024-03-22T13:29:57;15.20;99.90
12604;DHT22;6367;52.508;13.284;2024-03-22T13:32:22;15.20;99.90
12604;DHT22;6367;52.508;13.284;2024-03-22T13:34:48;15.30;99.90
12604;DHT22;6367;52.508;13.284;2024-03-22T13:37:15;15.30;99.90
12604;DHT22;6367;52.508;13.284;2024-03-22T13:39:41;15.30;99.90
12604;DHT22;6367;52.508;13.284;2024-03-22T13:42:07;15.20;99.90
12604;DHT22;6367;52.508;13.284;2024-03-22T13:44:33;15.30;99.90
12604;DHT22;6367;52.508;13.284;2024-03-22T13:46:59;15.30;99.90
12604;DHT22;6367;52.508;13.284;2024-03-22T13:49:25;15.30;99.90
12604;DHT22;6367;52.508;13.284;2024-03-22T13:51:50;15.30;99.90
12604;DHT22;6367;52.508;13.284;2024-03-22T13:54:16;15.30;99.90
12604;DHT22;6367;52.508;13.284;2024-03-22T13:56:42;15.30;99.90
12604;DHT22;6367;52.508;13.284;2024-03-22T13:59:08;15.30;99.90
12604;DHT22;6367;52.508;13.284;2024-03-22T14:01:35;15.30;99.90
12604;DHT22;6367;52.508;13.284;2024-03-22T14:04:02;15.20;99.90
12604;DHT22;6367;52.508;13.284;2024-03-22T14:06:29;15.20;99.90
12604;DHT22;6367;52.508;13.284;2024-03-22T14:08:55;15.20;99.90
12604;DHT22;6367;52.508;13.284;2024-03-22T14:11:26;15.20;99.90
12604;DHT22;6367;52.508;13.284;2024-03-22T14:13:52;15.60;99.90
12604;DHT22;6367;52.508;13.284;2024-03-22T14:16:17;15.10;99.90
12604;DHT22;6367;52.508;13.284;2024-03-22T14:18:43;15.10;99.90
12604;DHT22;6367;52.508;13.284;2024-03-22T14:21:09;15.10;99.90
12604;DHT22;6367;52.508;13.284;2024-03-22T14:23:34;14.90;99.90
12604;DHT22;6367;52.508;13.284;2024-03-22T14:26:00;15.10;99.90
12604;DHT22;6367;52.508;13.284;2024-03-22T14:28:26;15.10;99.90
12604;DHT22;6367;52.508;13.284;2024-03-22T14:30:51;15.20;99.90
12604;DHT22;6367;52.508;13.284;2024-03-22T14:33:17;15.10;99.90
12604;DHT22;6367;52.508;13.284;2024-03-22T14:35:43;15.00;99.90
12604;DHT22;6367;52.508;13.284;2024-03-22T14:38:09;15.00;99.90
12604;DHT22;6367;52.508;13.284;2024-03-22T14:40:34;15.00;99.90
12604;DHT22;6367;52.508;13.284;2024-03-22T14:43:03;15.40;99.90
12604;DHT22;6367;52.508;13.284;2024-03-22T14:45:29;15.10;99.90
12604;DHT22;6367;52.508;13.284;2024-03-22T14:47:54;15.20;99.90
12604;DHT22;6367;52.508;13.284;2024-03-22T14:50:21;15.20;99.90
12604;DHT22;6367;52.508;13.284;2024-03-22T14:52:49;15.20;99.90
12604;DHT22;6367;52.508;13.284;2024-03-22T14:55:15;15.30;99.90
12604;DHT22;6367;52.508;13.284;2024-03-22T14:57:40;15.30;99.90
12604;DHT22;6367;52.508;13.284;2024-03-22T15:00:06;15.20;99.90
12604;DHT22;6367;52.508;13.284;2024-03-22T15:02:36;15.20;99.90
12604;DHT22;6367;52.508;13.284;2024-03-22T15:05:02;15.20;99.90
12604;DHT22;6367;52.508;13.284;2024-03-22T15:07:29;15.20;99.90
12604;DHT22;6367;52.508;13.284;2024-03-22T15:09:55;15.30;99.90
12604;DHT22;6367;52.508;13.284;2024-03-22T15:12:21;15.30;99.90
12604;DHT22;6367;52.508;13.284;2024-03-22T15:14:47;15.20;99.90
12604;DHT22;6367;52.508;13.284;2024-03-22T15:17:12;15.30;99.90
12604;DHT22;6367;52.508;13.284;2024-03-22T15:19:41;15.30;99.90
12604;DHT22;6367;52.508;13.284;2024-03-22T15:22:08;15.20;99.90
12604;DHT22;6367;52.508;13.284;2024-03-22T15:24:34;15.20;99.90